createdAt,value
2023-03-19T00:01:05.202Z,99948.16
2023-03-19T00:02:37.319Z,99950.06
2023-03-19T00:04:09.400Z,99949.34
2023-03-19T00:05:41.143Z,99945.06
2023-03-19T00:07:13.917Z,99952.25
2023-03-19T00:08:45.870Z,99946.88
2023-03-19T00:10:18.099Z,99951.25
2023-03-19T00:11:49.845Z,99954.94
2023-03-19T00:13:21.973Z,99955.88
2023-03-19T00:14:53.696Z,99953.31
2023-03-19T00:16:25.473Z,99955.03
2023-03-19T00:17:57.603Z,99947.84
2023-03-19T00:19:29.420Z,99953.94
2023-03-19T00:21:01.714Z,99948.69
2023-03-19T00:22:33.404Z,99943.31
2023-03-19T00:24:05.590Z,99949.66
2023-03-19T00:25:37.658Z,99947.09
2023-03-19T00:27:09.617Z,99953.31
2023-03-19T00:28:41.765Z,99950.63
2023-03-19T00:30:15.109Z,99954.16
2023-03-19T00:31:47.744Z,99950.50
2023-03-19T00:33:20.483Z,99951.69
2023-03-19T00:34:53.228Z,99941.00
2023-03-19T00:36:26.605Z,99943.13
2023-03-19T00:37:58.824Z,99940.44
2023-03-19T00:39:30.544Z,99944.09
2023-03-19T00:41:04.052Z,99946.78
2023-03-19T00:42:36.585Z,99936.06
2023-03-19T00:44:08.669Z,99936.25
2023-03-19T00:45:40.755Z,99929.91
2023-03-19T00:47:13.301Z,99934.34
2023-03-19T00:48:45.260Z,99937.97
2023-03-19T00:50:16.981Z,99937.22
2023-03-19T00:51:48.751Z,99945.13
2023-03-19T00:53:21.491Z,99938.94
2023-03-19T00:54:53.411Z,99943.25
2023-03-19T00:56:25.125Z,99936.25
2023-03-19T00:57:57.452Z,99938.22
2023-03-19T00:59:29.302Z,99942.59
2023-03-19T01:01:02.399Z,99946.97
2023-03-19T01:02:34.272Z,99945.94
2023-03-19T01:04:06.334Z,99942.38
2023-03-19T01:05:40.972Z,99947.72
2023-03-19T01:07:12.679Z,99952.16
2023-03-19T01:08:44.380Z,99944.09
2023-03-19T01:10:18.963Z,99944.09
2023-03-19T01:11:51.114Z,99946.13
2023-03-19T01:13:22.842Z,99937.00
2023-03-19T01:14:54.556Z,99942.28
2023-03-19T01:16:26.501Z,99937.78
2023-03-19T01:17:58.353Z,99935.28
2023-03-19T01:19:30.295Z,99930.72
2023-03-19T01:21:02.721Z,99934.34
2023-03-19T01:22:38.292Z,99933.47
2023-03-19T01:24:10.817Z,99933.47
2023-03-19T01:25:42.997Z,99936.69
2023-03-19T01:27:14.697Z,99941.13
2023-03-19T01:28:46.382Z,99941.75
2023-03-19T01:30:19.029Z,99935.28
2023-03-19T01:32:17.880Z,99940.56
2023-03-19T01:34:00.228Z,99931.53
2023-03-19T01:35:39.666Z,99934.22
2023-03-19T01:37:11.487Z,99929.84
2023-03-19T01:38:44.251Z,99938.94
2023-03-19T01:40:19.881Z,99933.94
2023-03-19T01:41:51.975Z,99931.88
2023-03-19T01:43:48.997Z,99934.66
2023-03-19T01:45:40.979Z,99925.88
2023-03-19T01:47:47.221Z,99935.09
2023-03-19T01:49:31.818Z,99936.06
2023-03-19T01:51:20.733Z,99932.72
2023-03-19T01:53:12.807Z,99933.78
2023-03-19T01:54:54.468Z,99931.25
2023-03-19T01:56:58.401Z,99925.34
2023-03-19T01:59:08.655Z,99930.81
2023-03-19T02:00:49.548Z,99925.56
2023-03-19T02:02:29.501Z,99933.09
2023-03-19T02:04:03.652Z,99925.34
2023-03-19T02:05:41.355Z,99932.25
2023-03-19T02:07:17.414Z,99932.31
2023-03-19T02:08:50.125Z,99935.84
2023-03-19T02:10:23.115Z,99936.84
2023-03-19T02:11:56.267Z,99936.84
2023-03-19T02:13:28.525Z,99938.75
2023-03-19T02:15:00.475Z,99933.31
2023-03-19T02:16:33.057Z,99928.03
2023-03-19T02:18:05.201Z,99931.56
2023-03-19T02:19:53.283Z,99928.03
2023-03-19T02:21:25.420Z,99923.44
2023-03-19T02:23:12.363Z,99917.22
2023-03-19T02:24:52.262Z,99913.56
2023-03-19T02:26:29.176Z,99926.00
2023-03-19T02:28:07.822Z,99924.94
2023-03-19T02:29:39.561Z,99925.56
2023-03-19T02:31:13.607Z,99917.44
2023-03-19T02:32:45.472Z,99917.31
2023-03-19T02:34:38.844Z,99922.88
2023-03-19T02:36:15.665Z,99925.13
2023-03-19T02:37:47.366Z,99928.78
2023-03-19T02:39:37.887Z,99932.41
2023-03-19T02:41:10.650Z,99935.00
2023-03-19T02:42:44.077Z,99940.22
2023-03-19T02:44:17.413Z,99940.34
2023-03-19T02:45:50.720Z,99938.44
2023-03-19T02:47:24.168Z,99950.84
2023-03-19T02:48:55.857Z,99952.66
2023-03-19T02:50:27.615Z,99941.09
2023-03-19T02:51:59.335Z,99949.13
2023-03-19T02:53:31.437Z,99949.13
2023-03-19T02:55:08.048Z,99944.84
2023-03-19T02:56:40.455Z,99949.34
2023-03-19T02:58:12.303Z,99954.81
2023-03-19T02:59:44.237Z,99952.34
2023-03-19T03:01:16.652Z,99952.56
2023-03-19T03:02:48.450Z,99956.34
2023-03-19T03:04:20.136Z,99952.91
2023-03-19T03:05:52.067Z,99954.09
2023-03-19T03:07:23.865Z,99951.63
2023-03-19T03:08:55.544Z,99955.38
2023-03-19T03:10:27.940Z,99959.03
2023-03-19T03:11:59.823Z,99957.28
2023-03-19T03:13:33.036Z,99952.16
2023-03-19T03:15:06.608Z,99956.66
2023-03-19T03:16:38.451Z,99954.19
2023-03-19T03:18:10.428Z,99953.47
2023-03-19T03:19:42.182Z,99945.44
2023-03-19T03:21:13.956Z,99949.16
2023-03-19T03:22:45.918Z,99948.41
2023-03-19T03:24:17.631Z,99949.16
2023-03-19T03:25:51.436Z,99952.69
2023-03-19T03:27:23.190Z,99953.66
2023-03-19T03:28:55.077Z,99956.13
2023-03-19T03:30:26.981Z,99950.88
2023-03-19T03:31:58.704Z,99947.88
2023-03-19T03:33:30.793Z,99952.16
2023-03-19T03:35:04.118Z,99945.94
2023-03-19T03:36:35.972Z,99946.59
2023-03-19T03:38:08.070Z,99956.22
2023-03-19T03:39:39.743Z,99953.53
2023-03-19T03:41:11.753Z,99946.28
2023-03-19T03:42:44.465Z,99945.31
2023-03-19T03:44:16.493Z,99952.16
2023-03-19T03:45:49.977Z,99950.00
2023-03-19T03:47:22.679Z,99944.88
2023-03-19T03:48:54.388Z,99940.28
2023-03-19T03:50:26.131Z,99941.00
2023-03-19T03:52:00.547Z,99954.38
2023-03-19T03:53:32.552Z,99947.97
2023-03-19T03:55:05.356Z,99958.69
2023-03-19T03:56:37.448Z,99955.78
2023-03-19T03:58:09.242Z,99947.63
2023-03-19T03:59:41.005Z,99955.56
2023-03-19T04:01:16.678Z,99951.06
2023-03-19T04:02:51.674Z,99956.19
2023-03-19T04:04:23.387Z,99947.19
2023-03-19T04:05:55.169Z,99943.66
2023-03-19T04:07:28.071Z,99939.16
2023-03-19T04:09:02.744Z,99938.22
2023-03-19T04:10:36.143Z,99930.16
2023-03-19T04:12:08.008Z,99932.94
2023-03-19T04:13:39.911Z,99931.97
2023-03-19T04:15:12.215Z,99938.22
2023-03-19T04:16:46.806Z,99929.19
2023-03-19T04:18:18.608Z,99934.56
2023-03-19T04:19:50.372Z,99940.22
2023-03-19T04:21:22.198Z,99944.50
2023-03-19T04:22:53.995Z,99953.41
2023-03-19T04:24:26.309Z,99945.28
2023-03-19T04:26:08.259Z,99938.94
2023-03-19T04:27:40.033Z,99944.19
2023-03-19T04:29:13.357Z,99937.00
2023-03-19T04:30:45.151Z,99939.91
2023-03-19T04:32:17.349Z,99942.38
2023-03-19T04:33:49.434Z,99946.00
2023-03-19T04:35:21.620Z,99946.88
2023-03-19T04:36:53.552Z,99945.06
2023-03-19T04:38:29.233Z,99947.81
2023-03-19T04:40:01.131Z,99945.94
2023-03-19T04:41:34.931Z,99954.91
2023-03-19T04:43:29.373Z,99953.09
2023-03-19T04:45:01.947Z,99952.16
2023-03-19T04:46:33.768Z,99954.03
2023-03-19T04:48:07.019Z,99950.41
2023-03-19T04:49:39.928Z,99944.41
2023-03-19T04:51:11.641Z,99955.22
2023-03-19T04:52:43.942Z,99942.91
2023-03-19T04:54:16.757Z,99947.41
2023-03-19T04:55:48.585Z,99952.88
2023-03-19T04:57:22.612Z,99942.25
2023-03-19T04:58:56.949Z,99953.19
2023-03-19T05:00:30.686Z,99954.38
2023-03-19T05:02:03.661Z,99952.78
2023-03-19T05:03:36.679Z,99955.66
2023-03-19T05:05:09.853Z,99954.81
2023-03-19T05:06:41.868Z,99948.63
2023-03-19T05:08:13.844Z,99956.22
2023-03-19T05:09:46.519Z,99946.38
2023-03-19T05:11:20.193Z,99950.78
2023-03-19T05:13:14.998Z,99951.19
2023-03-19T05:14:52.831Z,99946.16
2023-03-19T05:16:27.745Z,99948.09
2023-03-19T05:17:59.646Z,99955.16
2023-03-19T05:19:39.610Z,99954.31
2023-03-19T05:21:13.875Z,99954.63
2023-03-19T05:22:46.783Z,99953.88
2023-03-19T05:24:19.995Z,99949.59
2023-03-19T05:25:52.011Z,99943.69
2023-03-19T05:27:30.625Z,99954.53
2023-03-19T05:29:10.975Z,99956.00
2023-03-19T05:31:17.933Z,99950.78
2023-03-19T05:32:55.857Z,99958.16
2023-03-19T05:34:42.470Z,99960.91
2023-03-19T05:36:14.758Z,99953.88
2023-03-19T05:38:11.205Z,99953.88
2023-03-19T05:39:44.292Z,99955.97
2023-03-19T05:41:16.122Z,99963.28
2023-03-19T05:42:58.097Z,99962.50
2023-03-19T05:44:32.643Z,99963.56
2023-03-19T05:46:27.625Z,99965.50
2023-03-19T05:47:59.366Z,99967.31
2023-03-19T05:49:31.873Z,99964.75
2023-03-19T05:51:04.127Z,99960.16
2023-03-19T05:52:40.396Z,99964.44
2023-03-19T05:54:12.439Z,99959.72
2023-03-19T05:56:04.636Z,99971.19
2023-03-19T05:57:43.247Z,99966.59
2023-03-19T05:59:23.181Z,99972.88
2023-03-19T06:01:10.673Z,99974.50
2023-03-19T06:02:43.212Z,99971.81
2023-03-19T06:04:40.329Z,99973.97
2023-03-19T06:06:12.469Z,99972.88
2023-03-19T06:07:48.592Z,99978.16
2023-03-19T06:09:38.225Z,99966.69
2023-03-19T06:11:10.289Z,99973.97
2023-03-19T06:12:42.471Z,99968.50
2023-03-19T06:14:39.300Z,99974.50
2023-03-19T06:16:39.624Z,99976.31
2023-03-19T06:18:11.361Z,99975.47
2023-03-19T06:19:43.079Z,99976.31
2023-03-19T06:21:15.247Z,99976.13
2023-03-19T06:22:47.011Z,99978.69
2023-03-19T06:24:18.960Z,99984.72
2023-03-19T06:25:50.928Z,99973.25
2023-03-19T06:27:23.983Z,99984.03
2023-03-19T06:28:59.572Z,99979.44
2023-03-19T06:30:33.346Z,99974.22
2023-03-19T06:32:08.173Z,99978.59
2023-03-19T06:33:45.470Z,99970.44
2023-03-19T06:35:17.490Z,99974.72
2023-03-19T06:36:53.851Z,99975.59
2023-03-19T06:38:25.798Z,99977.84
2023-03-19T06:39:57.485Z,99971.75
2023-03-19T06:41:29.229Z,99965.31
2023-03-19T06:43:10.360Z,99978.47
2023-03-19T06:44:42.037Z,99973.97
2023-03-19T06:46:13.775Z,99979.03
2023-03-19T06:47:47.168Z,99981.50
2023-03-19T06:49:19.411Z,99976.16
2023-03-19T06:50:51.141Z,99977.66
2023-03-19T06:52:22.826Z,99976.56
2023-03-19T06:53:55.056Z,99986.00
2023-03-19T06:55:26.740Z,99988.34
2023-03-19T06:56:59.282Z,99987.09
2023-03-19T06:58:30.971Z,99989.41
2023-03-19T07:00:05.578Z,99986.53
2023-03-19T07:01:37.539Z,99989.00
2023-03-19T07:03:10.496Z,99988.78
2023-03-19T07:04:42.205Z,99990.28
2023-03-19T07:06:13.968Z,99998.09
2023-03-19T07:07:45.691Z,100003.22
2023-03-19T07:09:17.442Z,100008.09
2023-03-19T07:10:49.180Z,100007.00
2023-03-19T07:12:20.918Z,100006.91
2023-03-19T07:13:52.772Z,100007.53
2023-03-19T07:15:24.468Z,100009.03
2023-03-19T07:16:56.203Z,100005.06
2023-03-19T07:18:27.950Z,100015.34
2023-03-19T07:19:59.638Z,100010.50
2023-03-19T07:21:31.353Z,100008.97
2023-03-19T07:23:03.440Z,100011.97
2023-03-19T07:24:35.131Z,100011.41
2023-03-19T07:26:06.854Z,100004.75
2023-03-19T07:27:38.547Z,100011.34
2023-03-19T07:29:11.246Z,100017.75
2023-03-19T07:30:42.945Z,100010.84
2023-03-19T07:32:14.697Z,100007.59
2023-03-19T07:33:46.412Z,100011.41
2023-03-19T07:35:18.389Z,100016.94
2023-03-19T07:36:51.285Z,100025.50
2023-03-19T07:38:22.941Z,100020.41
2023-03-19T07:39:54.624Z,100022.63
2023-03-19T07:41:26.508Z,100023.66
2023-03-19T07:42:58.211Z,100019.63
2023-03-19T07:44:29.948Z,100019.28
2023-03-19T07:46:01.986Z,100016.84
2023-03-19T07:47:33.784Z,100015.44
2023-03-19T07:49:05.987Z,100017.75
2023-03-19T07:50:37.727Z,100011.66
2023-03-19T07:52:10.089Z,100017.16
2023-03-19T07:53:41.815Z,100016.53
2023-03-19T07:55:14.143Z,100010.81
2023-03-19T07:56:46.136Z,100010.19
2023-03-19T07:58:18.271Z,100010.81
2023-03-19T07:59:49.980Z,100007.25
2023-03-19T08:01:21.775Z,100006.66
2023-03-19T08:02:53.737Z,100015.69
2023-03-19T08:04:25.453Z,100010.66
2023-03-19T08:05:57.210Z,100005.22
2023-03-19T08:07:28.896Z,100007.47
2023-03-19T08:09:01.403Z,100012.09
2023-03-19T08:10:37.978Z,100001.41
2023-03-19T08:12:10.363Z,100008.13
2023-03-19T08:13:42.799Z,100013.47
2023-03-19T08:15:14.635Z,100015.66
2023-03-19T08:16:46.405Z,100008.75
2023-03-19T08:18:18.251Z,100019.00
2023-03-19T08:19:51.193Z,100016.28
2023-03-19T08:21:23.160Z,100022.84
2023-03-19T08:22:55.049Z,100016.09
2023-03-19T08:24:26.759Z,100013.56
2023-03-19T08:25:58.499Z,100017.44
2023-03-19T08:27:34.757Z,100013.25
2023-03-19T08:29:07.109Z,100011.75
2023-03-19T08:30:39.448Z,100006.56
2023-03-19T08:32:11.566Z,100012.16
2023-03-19T08:33:43.320Z,100016.16
2023-03-19T08:35:15.106Z,100013.63
2023-03-19T08:36:46.851Z,100014.78
2023-03-19T08:38:19.252Z,100017.53
2023-03-19T08:39:52.319Z,100014.16
2023-03-19T08:41:24.478Z,100014.47
2023-03-19T08:42:56.459Z,100005.84
2023-03-19T08:44:28.244Z,100008.09
2023-03-19T08:46:04.003Z,100015.66
2023-03-19T08:47:35.784Z,100012.41
2023-03-19T08:49:07.443Z,100013.53
2023-03-19T08:50:39.104Z,100015.81
2023-03-19T08:52:10.793Z,100014.56
2023-03-19T08:53:42.459Z,100014.13
2023-03-19T08:55:14.200Z,100013.88
2023-03-19T08:56:46.785Z,100010.03
2023-03-19T08:58:18.475Z,100009.91
2023-03-19T08:59:50.397Z,100013.75
2023-03-19T09:01:22.142Z,100007.09
2023-03-19T09:02:53.804Z,100008.94
2023-03-19T09:04:25.588Z,100020.44
2023-03-19T09:06:02.091Z,100004.25
2023-03-19T09:07:33.800Z,100012.78
2023-03-19T09:09:06.503Z,100004.53
2023-03-19T09:10:39.510Z,100011.34
2023-03-19T09:12:13.647Z,100003.84
2023-03-19T09:13:47.939Z,100019.03
2023-03-19T09:15:19.906Z,100018.59
2023-03-19T09:16:51.685Z,100018.88
2023-03-19T09:18:26.616Z,100019.44
2023-03-19T09:19:58.828Z,100016.34
2023-03-19T09:21:30.668Z,100016.72
2023-03-19T09:23:02.368Z,100012.78
2023-03-19T09:24:34.196Z,100016.72
2023-03-19T09:26:05.945Z,100018.00
2023-03-19T09:27:37.745Z,100022.13
2023-03-19T09:29:09.886Z,100017.88
2023-03-19T09:30:41.655Z,100023.25
2023-03-19T09:32:13.360Z,100017.81
2023-03-19T09:33:45.395Z,100016.81
2023-03-19T09:35:17.082Z,100018.19
2023-03-19T09:36:48.804Z,100025.13
2023-03-19T09:38:21.883Z,100021.06
2023-03-19T09:39:53.619Z,100025.72
2023-03-19T09:41:31.544Z,100007.91
2023-03-19T09:43:41.963Z,100005.81
2023-03-19T09:45:19.273Z,100002.31
2023-03-19T09:47:26.224Z,100007.53
2023-03-19T09:49:08.146Z,99992.19
2023-03-19T09:50:39.863Z,100003.94
2023-03-19T09:52:45.776Z,100001.16
2023-03-19T09:54:39.817Z,99996.22
2023-03-19T09:56:16.555Z,99993.94
2023-03-19T09:57:49.001Z,99995.38
2023-03-19T09:59:23.642Z,100002.09
2023-03-19T10:00:55.609Z,100000.63
2023-03-19T10:02:41.967Z,99997.66
2023-03-19T10:04:39.961Z,99995.50
2023-03-19T10:06:33.803Z,99990.53
2023-03-19T10:08:28.463Z,99995.97
2023-03-19T10:10:28.501Z,100002.97
2023-03-19T10:12:20.396Z,99997.25
2023-03-19T10:14:23.242Z,99997.47
2023-03-19T10:15:56.497Z,99994.66
2023-03-19T10:17:38.211Z,99990.28
2023-03-19T10:19:13.414Z,99987.91
2023-03-19T10:21:03.731Z,99988.75
2023-03-19T10:22:47.366Z,99990.16
2023-03-19T10:24:31.315Z,99986.75
2023-03-19T10:26:06.115Z,99990.84
2023-03-19T10:27:38.194Z,99990.34
2023-03-19T10:29:15.990Z,99990.00
2023-03-19T10:31:00.903Z,99990.53
2023-03-19T10:32:46.205Z,99988.97
2023-03-19T10:34:37.947Z,99996.44
2023-03-19T10:36:13.389Z,99991.31
2023-03-19T10:37:48.537Z,99995.00
2023-03-19T10:39:20.534Z,99998.72
2023-03-19T10:41:05.757Z,99997.31
2023-03-19T10:43:16.762Z,99998.44
2023-03-19T10:44:53.817Z,99994.75
2023-03-19T10:46:25.929Z,99994.44
2023-03-19T10:47:59.957Z,99991.84
2023-03-19T10:49:36.155Z,99992.41
2023-03-19T10:51:07.969Z,99991.00
2023-03-19T10:52:39.759Z,99994.28
2023-03-19T10:54:23.422Z,99994.84
2023-03-19T10:56:07.248Z,99987.66
2023-03-19T10:57:42.413Z,99985.41
2023-03-19T10:59:36.350Z,99987.47
2023-03-19T11:01:12.182Z,99984.34
2023-03-19T11:02:53.881Z,99977.19
2023-03-19T11:04:27.900Z,99982.81
2023-03-19T11:06:31.347Z,99979.56
2023-03-19T11:08:34.634Z,99988.59
2023-03-19T11:10:16.308Z,99987.28
2023-03-19T11:11:51.185Z,99976.66
2023-03-19T11:13:27.071Z,99991.53
2023-03-19T11:14:59.157Z,99992.03
2023-03-19T11:16:31.337Z,99980.94
2023-03-19T11:18:21.023Z,99984.13
2023-03-19T11:19:58.369Z,99990.94
2023-03-19T11:21:33.013Z,99980.91
2023-03-19T11:23:15.789Z,99978.81
2023-03-19T11:24:53.615Z,99982.19
2023-03-19T11:26:28.668Z,99986.63
2023-03-19T11:28:08.099Z,99981.16
2023-03-19T11:29:44.862Z,99985.56
2023-03-19T11:31:44.951Z,99977.53
2023-03-19T11:33:32.742Z,99980.91
2023-03-19T11:35:17.530Z,99974.53
2023-03-19T11:37:03.660Z,99972.38
2023-03-19T11:38:51.628Z,99974.69
2023-03-19T11:40:37.928Z,99965.59
2023-03-19T11:42:36.963Z,99971.44
2023-03-19T11:44:24.115Z,99969.09
2023-03-19T11:46:24.232Z,99967.16
2023-03-19T11:48:13.847Z,99970.28
2023-03-19T11:50:00.436Z,99965.00
2023-03-19T11:51:48.198Z,99962.88
2023-03-19T11:53:36.556Z,99960.53
2023-03-19T11:55:37.795Z,99962.59
2023-03-19T11:57:57.764Z,99958.00
2023-03-19T11:59:55.076Z,99957.13
2023-03-19T12:01:49.240Z,99956.16
2023-03-19T12:03:49.476Z,99967.50
2023-03-19T12:05:42.646Z,99961.19
2023-03-19T12:07:39.595Z,99957.38
2023-03-19T12:09:24.051Z,99958.22
2023-03-19T12:11:07.396Z,99960.13
2023-03-19T12:12:48.585Z,99956.16
2023-03-19T12:14:28.039Z,99960.78
2023-03-19T12:16:08.662Z,99964.16
2023-03-19T12:17:41.715Z,99956.59
2023-03-19T12:19:42.830Z,99949.19
2023-03-19T12:21:23.976Z,99962.06
2023-03-19T12:23:04.575Z,99955.94
2023-03-19T12:24:45.528Z,99954.53
2023-03-19T12:26:48.697Z,99954.53
2023-03-19T12:28:28.637Z,99953.91
2023-03-19T12:30:22.441Z,99948.63
2023-03-19T12:32:42.405Z,99955.81
2023-03-19T12:34:40.161Z,99957.72
2023-03-19T12:36:28.027Z,99954.53
2023-03-19T12:38:17.509Z,99952.56
2023-03-19T12:40:18.623Z,99943.03
2023-03-19T12:41:52.564Z,99951.06
2023-03-19T12:43:36.764Z,99949.78
2023-03-19T12:45:31.342Z,99948.47
2023-03-19T12:47:18.428Z,99950.34
2023-03-19T12:49:02.993Z,99950.56
2023-03-19T12:50:39.769Z,99942.16
2023-03-19T12:52:39.316Z,99944.25
2023-03-19T12:54:24.328Z,99945.53
2023-03-19T12:56:01.282Z,99949.78
2023-03-19T12:57:59.986Z,99949.41
2023-03-19T12:59:42.681Z,99942.03
2023-03-19T13:01:25.138Z,99943.97
2023-03-19T13:03:18.578Z,99947.16
2023-03-19T13:04:57.558Z,99948.00
2023-03-19T13:06:47.966Z,99948.84
2023-03-19T13:09:24.126Z,99948.63
2023-03-19T13:10:59.694Z,99952.28
2023-03-19T13:12:37.688Z,99951.22
2023-03-19T13:14:50.233Z,99956.03
2023-03-19T13:16:37.378Z,99951.22
2023-03-19T13:18:22.030Z,99957.16
2023-03-19T13:19:56.378Z,99956.97
2023-03-19T13:21:32.488Z,99960.72
2023-03-19T13:23:06.729Z,99956.97
2023-03-19T13:24:40.892Z,99952.53
2023-03-19T13:26:14.445Z,99960.72
2023-03-19T13:27:54.351Z,99953.97
2023-03-19T13:29:31.428Z,99963.41
2023-03-19T13:31:17.030Z,99952.88
2023-03-19T13:33:03.635Z,99952.41
2023-03-19T13:34:37.850Z,99958.09
2023-03-19T13:36:15.166Z,99955.94
2023-03-19T13:37:51.871Z,99952.97
2023-03-19T13:39:31.309Z,99946.00
2023-03-19T13:41:03.025Z,99949.97
2023-03-19T13:42:42.679Z,99950.19
2023-03-19T13:44:32.356Z,99948.84
2023-03-19T13:46:16.018Z,99947.84
2023-03-19T13:47:51.388Z,99945.28
2023-03-19T13:49:28.155Z,99942.75
2023-03-19T13:51:02.970Z,99950.97
2023-03-19T13:52:49.937Z,99942.44
2023-03-19T13:54:35.877Z,99945.41
2023-03-19T13:56:28.722Z,99949.16
2023-03-19T13:58:17.667Z,99947.88
2023-03-19T13:59:50.840Z,99947.19
2023-03-19T14:01:25.755Z,99946.97
2023-03-19T14:02:58.957Z,99946.50
2023-03-19T14:04:32.855Z,99951.53
2023-03-19T14:06:05.157Z,99947.66
2023-03-19T14:07:40.494Z,99953.53
2023-03-19T14:09:43.195Z,99947.53
2023-03-19T14:11:24.634Z,99945.38
2023-03-19T14:13:07.475Z,99947.84
2023-03-19T14:15:05.498Z,99942.47
2023-03-19T14:16:42.337Z,99949.00
2023-03-19T14:18:22.334Z,99946.84
2023-03-19T14:19:54.671Z,99947.38
2023-03-19T14:22:06.907Z,99949.56
2023-03-19T14:23:44.163Z,99943.25
2023-03-19T14:25:19.482Z,99948.28
2023-03-19T14:26:51.462Z,99950.91
2023-03-19T14:28:30.605Z,99951.47
2023-03-19T14:30:16.737Z,99949.91
2023-03-19T14:31:54.410Z,99944.53
2023-03-19T14:33:42.068Z,99955.16
2023-03-19T14:35:17.211Z,99951.50
2023-03-19T14:37:03.524Z,99950.94
2023-03-19T14:38:40.376Z,99952.16
2023-03-19T14:40:16.924Z,99941.94
2023-03-19T14:41:54.734Z,99951.06
2023-03-19T14:43:51.030Z,99952.00
2023-03-19T14:45:43.103Z,99954.34
2023-03-19T14:47:26.248Z,99953.56
2023-03-19T14:49:13.171Z,99948.84
2023-03-19T14:50:56.940Z,99953.16
2023-03-19T14:52:32.297Z,99959.72
2023-03-19T14:54:52.638Z,99954.56
2023-03-19T14:56:33.377Z,99958.66
2023-03-19T14:58:05.652Z,99956.84
2023-03-19T14:59:39.722Z,99970.72
2023-03-19T15:01:12.556Z,99959.19
2023-03-19T15:02:50.503Z,99970.31
2023-03-19T15:04:25.560Z,99969.34
2023-03-19T15:06:00.189Z,99967.69
2023-03-19T15:07:38.516Z,99967.91
2023-03-19T15:09:18.581Z,99967.03
2023-03-19T15:11:14.522Z,99970.16
2023-03-19T15:13:23.577Z,99973.25
2023-03-19T15:15:13.366Z,99974.78
2023-03-19T15:17:09.830Z,99972.25
2023-03-19T15:18:41.963Z,99968.38
2023-03-19T15:20:21.916Z,99963.97
2023-03-19T15:22:04.614Z,99980.16
2023-03-19T15:23:39.565Z,99983.22
2023-03-19T15:25:14.133Z,99966.53
2023-03-19T15:26:46.429Z,99974.38
2023-03-19T15:28:19.900Z,99979.47
2023-03-19T15:29:53.619Z,99978.94
2023-03-19T15:31:55.031Z,99981.50
2023-03-19T15:33:42.087Z,99983.53
2023-03-19T15:35:15.986Z,99989.28
2023-03-19T15:36:53.518Z,99980.81
2023-03-19T15:38:29.090Z,99985.75
2023-03-19T15:40:02.704Z,99987.13
2023-03-19T15:41:41.780Z,99981.31
2023-03-19T15:43:14.285Z,99985.41
2023-03-19T15:45:17.565Z,99980.63
2023-03-19T15:46:51.170Z,99991.16
2023-03-19T15:48:28.637Z,99991.66
2023-03-19T15:50:16.428Z,99994.34
2023-03-19T15:51:53.472Z,99998.09
2023-03-19T15:53:31.515Z,100006.75
2023-03-19T15:55:04.411Z,100005.38
2023-03-19T15:56:36.292Z,99999.41
2023-03-19T15:58:12.379Z,99999.22
2023-03-19T15:59:46.020Z,100002.47
2023-03-19T16:01:19.272Z,100007.16
2023-03-19T16:02:52.828Z,100002.38
2023-03-19T16:04:29.896Z,100010.19
2023-03-19T16:06:27.582Z,100010.16
2023-03-19T16:08:04.059Z,100010.16
2023-03-19T16:09:35.724Z,100012.50
2023-03-19T16:11:29.833Z,100014.34
2023-03-19T16:13:05.160Z,100010.78
2023-03-19T16:14:42.980Z,100016.84
2023-03-19T16:16:20.028Z,100024.59
2023-03-19T16:17:51.892Z,100033.06
2023-03-19T16:19:29.588Z,100019.28
2023-03-19T16:21:13.569Z,100030.66
2023-03-19T16:22:55.622Z,100026.88
2023-03-19T16:24:36.112Z,100032.63
2023-03-19T16:26:24.155Z,100029.00
2023-03-19T16:27:56.886Z,100033.72
2023-03-19T16:29:36.527Z,100040.66
2023-03-19T16:31:21.706Z,100037.81
2023-03-19T16:33:02.230Z,100037.28
2023-03-19T16:34:34.068Z,100040.50
2023-03-19T16:36:12.504Z,100046.22
2023-03-19T16:37:45.080Z,100049.72
2023-03-19T16:39:32.349Z,100046.75
2023-03-19T16:41:16.766Z,100052.13
2023-03-19T16:42:54.193Z,100057.84
2023-03-19T16:44:29.736Z,100055.94
2023-03-19T16:46:12.372Z,100059.41
2023-03-19T16:47:48.673Z,100056.31
2023-03-19T16:49:21.069Z,100068.44
2023-03-19T16:50:52.788Z,100069.03
2023-03-19T16:52:25.052Z,100066.97
2023-03-19T16:53:56.735Z,100070.28
2023-03-19T16:55:34.728Z,100076.41
2023-03-19T16:57:11.496Z,100084.72
2023-03-19T16:58:44.774Z,100081.88
2023-03-19T17:00:17.312Z,100081.63
2023-03-19T17:01:49.196Z,100077.69
2023-03-19T17:03:21.052Z,100078.28
2023-03-19T17:04:52.991Z,100080.56
2023-03-19T17:06:24.907Z,100082.91
2023-03-19T17:07:57.010Z,100078.06
2023-03-19T17:09:28.812Z,100076.63
2023-03-19T17:11:01.401Z,100078.09
2023-03-19T17:12:33.276Z,100076.00
2023-03-19T17:14:07.085Z,100081.69
2023-03-19T17:15:42.282Z,100082.09
2023-03-19T17:17:19.535Z,100083.41
2023-03-19T17:18:51.351Z,100083.69
2023-03-19T17:20:36.185Z,100083.44
2023-03-19T17:22:11.131Z,100084.56
2023-03-19T17:23:43.661Z,100081.31
2023-03-19T17:25:18.463Z,100079.75
2023-03-19T17:26:50.370Z,100077.59
2023-03-19T17:28:23.657Z,100089.56
2023-03-19T17:29:55.416Z,100080.03
2023-03-19T17:31:30.091Z,100080.31
2023-03-19T17:33:02.673Z,100082.47
2023-03-19T17:34:36.921Z,100086.44
2023-03-19T17:36:09.562Z,100085.03
2023-03-19T17:37:42.022Z,100085.19
2023-03-19T17:39:13.846Z,100086.59
2023-03-19T17:40:47.512Z,100082.31
2023-03-19T17:42:23.192Z,100087.16
2023-03-19T17:43:55.666Z,100084.75
2023-03-19T17:45:29.914Z,100088.72
2023-03-19T17:47:03.030Z,100089.00
2023-03-19T17:48:35.085Z,100089.28
2023-03-19T17:50:13.890Z,100092.28
2023-03-19T17:51:46.960Z,100089.84
2023-03-19T17:53:18.769Z,100091.00
2023-03-19T17:54:50.683Z,100093.84
2023-03-19T17:56:28.012Z,100087.00
2023-03-19T17:57:59.799Z,100089.00
2023-03-19T17:59:31.559Z,100084.72
2023-03-19T18:01:03.480Z,100088.56
2023-03-19T18:02:36.850Z,100087.88
2023-03-19T18:04:17.939Z,100093.53
2023-03-19T18:05:51.110Z,100084.72
2023-03-19T18:07:22.928Z,100093.81
2023-03-19T18:08:55.423Z,100090.38
2023-03-19T18:10:30.171Z,100092.38
2023-03-19T18:12:02.101Z,100092.38
2023-03-19T18:13:34.945Z,100095.38
2023-03-19T18:15:07.520Z,100091.94
2023-03-19T18:16:39.848Z,100099.31
2023-03-19T18:18:18.888Z,100097.63
2023-03-19T18:19:52.346Z,100095.19
2023-03-19T18:21:24.695Z,100102.44
2023-03-19T18:22:56.480Z,100103.56
2023-03-19T18:24:28.346Z,100101.97
2023-03-19T18:26:00.155Z,100098.41
2023-03-19T18:27:32.141Z,100110.22
2023-03-19T18:29:04.907Z,100110.34
2023-03-19T18:30:40.117Z,100109.63
2023-03-19T18:32:15.611Z,100112.34
2023-03-19T18:33:54.177Z,100104.50
2023-03-19T18:35:31.744Z,100111.03
2023-03-19T18:37:03.832Z,100113.84
2023-03-19T18:38:36.005Z,100109.59
2023-03-19T18:40:13.416Z,100109.88
2023-03-19T18:41:45.625Z,100111.00
2023-03-19T18:43:18.158Z,100109.41
2023-03-19T18:44:49.974Z,100102.72
2023-03-19T18:46:28.879Z,100108.53
2023-03-19T18:48:01.074Z,100107.81
2023-03-19T18:49:32.925Z,100106.38
2023-03-19T18:51:05.395Z,100098.69
2023-03-19T18:52:37.234Z,100101.41
2023-03-19T18:54:10.910Z,100100.09